Main page
METAR-TAF:

METAR-TAF

Airports :

Multan International Airport

Multan, Pakistan

latitude: 30-12-12N, longitude: 71-25-09E, elevation: 122 m

Current weather observation

The report was made 32 minutes ago, at 20:49 UTC
Calm wind
Temperature 29°C
Humidity 40%
Pressure 1000 hPa
Visibility: 4000 m
haze

METAR: OPMT 242049Z 00000KT 4000 HZ NSC 29/14 Q1000 NOSIG

Time: 02:21 (21:21 UTC)

Forecast

The report was made 5 hours and 19 minutes ago, at 16:02 UTC
Forecast valid from 24 at 18 UTC to 25 at 12 UTC
Wind 5 kt from the Northeast
Visibility: 4000 m
haze
Probability 30% :
Temporary
from 25 at 00 UTC to 25 at 05 UTC
Wind kt from the North
Visibility: 2500 m
Few clouds at a height of 12000 ft
smoke
From 25 at 0700 UTC
Wind 10 kt from the South
Visibility: 6000 m
Few clouds at a height of 12000 ft

TAF: OPMT 241602Z 2418/2512 05005KT 4000 HZ NSC TN26/2501Z TX43/2510Z PROB30 TEMPO 2500/2505 00000KT 2500 FU FEW120 FM250700 18010KT 6000 FEW120

Weather observations and forecasts of more than 4000 airports (METAR and TAF reports).

The available stations are represented by yellow and red dots on the map.

Hover mouse over dot to see the name of the station.

Then click to see weather observations and forecasts.

To change the map : click on the green buttons with a black cross to zoom in, on the green button with a dash to zoom out, or on the green arrows for adjacent maps.


METAR-TAF: